sensor_id;sensor_type;location;lat;lon;timestamp;pressure;altitude;pressure_sealevel;temperature
42119;BMP280;27783;42.782;23.274;2023-07-13T00:01:54;95775.66;;;19.56
42119;BMP280;27783;42.782;23.274;2023-07-13T00:04:23;95774.44;;;19.69
42119;BMP280;27783;42.782;23.274;2023-07-13T00:06:52;95778.69;;;19.22
42119;BMP280;27783;42.782;23.274;2023-07-13T00:09:18;95787.09;;;19.33
42119;BMP280;27783;42.782;23.274;2023-07-13T00:11:45;95780.78;;;19.63
42119;BMP280;27783;42.782;23.274;2023-07-13T00:14:14;95781.75;;;19.57
42119;BMP280;27783;42.782;23.274;2023-07-13T00:16:41;95769.78;;;19.49
42119;BMP280;27783;42.782;23.274;2023-07-13T00:19:10;95764.72;;;19.63
42119;BMP280;27783;42.782;23.274;2023-07-13T00:21:36;95769.38;;;19.51
42119;BMP280;27783;42.782;23.274;2023-07-13T00:24:01;95771.28;;;19.50
42119;BMP280;27783;42.782;23.274;2023-07-13T00:26:28;95761.22;;;19.54
42119;BMP280;27783;42.782;23.274;2023-07-13T00:28:54;95760.81;;;19.55
42119;BMP280;27783;42.782;23.274;2023-07-13T00:31:20;95758.25;;;19.52
42119;BMP280;27783;42.782;23.274;2023-07-13T00:33:45;95760.94;;;19.52
42119;BMP280;27783;42.782;23.274;2023-07-13T00:36:11;95764.00;;;19.51
42119;BMP280;27783;42.782;23.274;2023-07-13T00:38:37;95760.16;;;19.39
42119;BMP280;27783;42.782;23.274;2023-07-13T00:41:03;95769.69;;;19.28
42119;BMP280;27783;42.782;23.274;2023-07-13T00:43:30;95767.72;;;19.65
42119;BMP280;27783;42.782;23.274;2023-07-13T00:48:24;95762.53;;;19.13
42119;BMP280;27783;42.782;23.274;2023-07-13T00:50:52;95758.69;;;18.90
42119;BMP280;27783;42.782;23.274;2023-07-13T00:53:18;95756.88;;;18.87
42119;BMP280;27783;42.782;23.274;2023-07-13T00:55:45;95757.66;;;18.75
42119;BMP280;27783;42.782;23.274;2023-07-13T00:58:11;95759.78;;;18.80
42119;BMP280;27783;42.782;23.274;2023-07-13T01:00:38;95759.78;;;18.68
42119;BMP280;27783;42.782;23.274;2023-07-13T01:03:04;95764.63;;;18.45
42119;BMP280;27783;42.782;23.274;2023-07-13T01:05:33;95754.69;;;18.46
42119;BMP280;27783;42.782;23.274;2023-07-13T01:08:01;95762.16;;;18.51
42119;BMP280;27783;42.782;23.274;2023-07-13T01:10:27;95755.09;;;18.72
42119;BMP280;27783;42.782;23.274;2023-07-13T01:12:53;95760.94;;;18.67
42119;BMP280;27783;42.782;23.274;2023-07-13T01:18:06;95755.94;;;18.29
42119;BMP280;27783;42.782;23.274;2023-07-13T01:20:32;95770.47;;;18.28
42119;BMP280;27783;42.782;23.274;2023-07-13T01:23:11;95763.31;;;18.37
42119;BMP280;27783;42.782;23.274;2023-07-13T01:25:38;95760.81;;;18.58
42119;BMP280;27783;42.782;23.274;2023-07-13T01:28:06;95758.81;;;18.74
42119;BMP280;27783;42.782;23.274;2023-07-13T01:30:34;95757.53;;;18.79
42119;BMP280;27783;42.782;23.274;2023-07-13T01:33:00;95749.19;;;18.77
42119;BMP280;27783;42.782;23.274;2023-07-13T01:35:27;95749.28;;;18.61
42119;BMP280;27783;42.782;23.274;2023-07-13T01:37:53;95750.91;;;18.71
42119;BMP280;27783;42.782;23.274;2023-07-13T01:40:20;95752.28;;;18.63
42119;BMP280;27783;42.782;23.274;2023-07-13T01:42:46;95747.56;;;18.55
42119;BMP280;27783;42.782;23.274;2023-07-13T01:45:11;95746.00;;;18.69
42119;BMP280;27783;42.782;23.274;2023-07-13T01:47:37;95744.72;;;18.74
42119;BMP280;27783;42.782;23.274;2023-07-13T01:50:03;95743.94;;;18.61
42119;BMP280;27783;42.782;23.274;2023-07-13T01:52:28;95757.25;;;18.37
42119;BMP280;27783;42.782;23.274;2023-07-13T01:54:54;95746.16;;;18.51
42119;BMP280;27783;42.782;23.274;2023-07-13T01:57:19;95756.72;;;18.54
42119;BMP280;27783;42.782;23.274;2023-07-13T01:59:45;95748.97;;;18.59
42119;BMP280;27783;42.782;23.274;2023-07-13T02:02:10;95755.72;;;18.76
42119;BMP280;27783;42.782;23.274;2023-07-13T02:04:36;95759.63;;;18.59
42119;BMP280;27783;42.782;23.274;2023-07-13T02:07:02;95766.44;;;18.60
42119;BMP280;27783;42.782;23.274;2023-07-13T02:09:28;95759.47;;;18.66
42119;BMP280;27783;42.782;23.274;2023-07-13T02:11:53;95756.34;;;18.68
42119;BMP280;27783;42.782;23.274;2023-07-13T02:14:20;95758.72;;;18.66
42119;BMP280;27783;42.782;23.274;2023-07-13T02:16:46;95761.28;;;18.69
42119;BMP280;27783;42.782;23.274;2023-07-13T02:19:13;95769.56;;;18.59
42119;BMP280;27783;42.782;23.274;2023-07-13T02:21:39;95766.94;;;18.31
42119;BMP280;27783;42.782;23.274;2023-07-13T02:24:04;95767.97;;;18.21
42119;BMP280;27783;42.782;23.274;2023-07-13T02:26:30;95765.41;;;18.18
42119;BMP280;27783;42.782;23.274;2023-07-13T02:28:55;95768.25;;;17.99
42119;BMP280;27783;42.782;23.274;2023-07-13T02:31:21;95769.47;;;17.67
42119;BMP280;27783;42.782;23.274;2023-07-13T02:33:46;95768.94;;;17.72
42119;BMP280;27783;42.782;23.274;2023-07-13T02:36:12;95767.28;;;17.62
42119;BMP280;27783;42.782;23.274;2023-07-13T02:38:39;95779.28;;;17.85
42119;BMP280;27783;42.782;23.274;2023-07-13T02:41:07;95777.16;;;17.50
42119;BMP280;27783;42.782;23.274;2023-07-13T02:43:34;95781.16;;;17.42
42119;BMP280;27783;42.782;23.274;2023-07-13T02:46:01;95775.16;;;17.22
42119;BMP280;27783;42.782;23.274;2023-07-13T02:48:33;95780.75;;;17.28
42119;BMP280;27783;42.782;23.274;2023-07-13T02:50:58;95776.50;;;17.30
42119;BMP280;27783;42.782;23.274;2023-07-13T02:53:24;95783.91;;;17.07
42119;BMP280;27783;42.782;23.274;2023-07-13T02:55:50;95789.97;;;16.92
42119;BMP280;27783;42.782;23.274;2023-07-13T02:58:16;95780.88;;;16.90
42119;BMP280;27783;42.782;23.274;2023-07-13T03:00:46;95784.50;;;17.30
42119;BMP280;27783;42.782;23.274;2023-07-13T03:03:13;95780.97;;;17.49
42119;BMP280;27783;42.782;23.274;2023-07-13T03:05:42;95784.31;;;17.52
42119;BMP280;27783;42.782;23.274;2023-07-13T03:08:09;95789.50;;;17.44
42119;BMP280;27783;42.782;23.274;2023-07-13T03:10:34;95788.47;;;17.53
42119;BMP280;27783;42.782;23.274;2023-07-13T03:13:00;95789.44;;;17.75
42119;BMP280;27783;42.782;23.274;2023-07-13T03:15:26;95787.22;;;17.58
42119;BMP280;27783;42.782;23.274;2023-07-13T03:17:52;95785.31;;;17.43
42119;BMP280;27783;42.782;23.274;2023-07-13T03:20:18;95797.53;;;17.56
42119;BMP280;27783;42.782;23.274;2023-07-13T03:22:44;95799.19;;;17.81
42119;BMP280;27783;42.782;23.274;2023-07-13T03:25:09;95805.50;;;17.71
42119;BMP280;27783;42.782;23.274;2023-07-13T03:27:36;95806.34;;;17.68
42119;BMP280;27783;42.782;23.274;2023-07-13T03:30:02;95802.31;;;17.64
42119;BMP280;27783;42.782;23.274;2023-07-13T03:32:28;95801.28;;;17.74
42119;BMP280;27783;42.782;23.274;2023-07-13T03:34:54;95795.88;;;18.05
42119;BMP280;27783;42.782;23.274;2023-07-13T03:37:19;95801.50;;;17.95
42119;BMP280;27783;42.782;23.274;2023-07-13T03:39:44;95800.44;;;17.77
42119;BMP280;27783;42.782;23.274;2023-07-13T03:42:10;95806.09;;;17.94
42119;BMP280;27783;42.782;23.274;2023-07-13T03:44:36;95800.28;;;17.84
42119;BMP280;27783;42.782;23.274;2023-07-13T03:47:01;95801.13;;;17.81
42119;BMP280;27783;42.782;23.274;2023-07-13T03:49:27;95807.19;;;17.97
42119;BMP280;27783;42.782;23.274;2023-07-13T03:51:52;95799.03;;;18.16
42119;BMP280;27783;42.782;23.274;2023-07-13T03:54:18;95802.25;;;17.95
42119;BMP280;27783;42.782;23.274;2023-07-13T03:56:44;95791.22;;;18.09
42119;BMP280;27783;42.782;23.274;2023-07-13T03:59:09;95791.78;;;18.16
42119;BMP280;27783;42.782;23.274;2023-07-13T04:01:35;95786.91;;;17.99
42119;BMP280;27783;42.782;23.274;2023-07-13T04:04:00;95794.44;;;17.88
42119;BMP280;27783;42.782;23.274;2023-07-13T04:06:28;95788.41;;;18.00
42119;BMP280;27783;42.782;23.274;2023-07-13T04:08:56;95798.13;;;18.34
42119;BMP280;27783;42.782;23.274;2023-07-13T04:11:23;95796.44;;;18.40
42119;BMP280;27783;42.782;23.274;2023-07-13T04:13:50;95806.78;;;18.66
42119;BMP280;27783;42.782;23.274;2023-07-13T04:16:17;95798.47;;;18.76
42119;BMP280;27783;42.782;23.274;2023-07-13T04:18:43;95789.50;;;18.82
42119;BMP280;27783;42.782;23.274;2023-07-13T04:21:09;95801.88;;;19.01
42119;BMP280;27783;42.782;23.274;2023-07-13T04:23:37;95803.28;;;19.05
42119;BMP280;27783;42.782;23.274;2023-07-13T04:26:03;95801.78;;;19.04
42119;BMP280;27783;42.782;23.274;2023-07-13T04:28:29;95806.59;;;19.09
42119;BMP280;27783;42.782;23.274;2023-07-13T04:30:55;95821.66;;;19.27
42119;BMP280;27783;42.782;23.274;2023-07-13T04:33:21;95812.34;;;19.56
42119;BMP280;27783;42.782;23.274;2023-07-13T04:35:51;95808.91;;;19.68
42119;BMP280;27783;42.782;23.274;2023-07-13T04:38:20;95803.41;;;19.83
42119;BMP280;27783;42.782;23.274;2023-07-13T04:40:46;95814.84;;;19.84
42119;BMP280;27783;42.782;23.274;2023-07-13T04:43:11;95816.72;;;20.07
42119;BMP280;27783;42.782;23.274;2023-07-13T04:45:37;95815.31;;;20.36
42119;BMP280;27783;42.782;23.274;2023-07-13T04:48:03;95818.28;;;20.80
42119;BMP280;27783;42.782;23.274;2023-07-13T04:50:28;95822.81;;;21.12
42119;BMP280;27783;42.782;23.274;2023-07-13T04:52:54;95819.72;;;21.22
42119;BMP280;27783;42.782;23.274;2023-07-13T04:55:20;95823.91;;;21.23
42119;BMP280;27783;42.782;23.274;2023-07-13T04:57:46;95824.81;;;21.29
42119;BMP280;27783;42.782;23.274;2023-07-13T05:00:13;95822.22;;;21.64
42119;BMP280;27783;42.782;23.274;2023-07-13T05:02:39;95820.22;;;21.38
42119;BMP280;27783;42.782;23.274;2023-07-13T05:05:06;95823.69;;;21.48
42119;BMP280;27783;42.782;23.274;2023-07-13T05:07:31;95821.44;;;21.46
42119;BMP280;27783;42.782;23.274;2023-07-13T05:09:59;95823.53;;;21.42
42119;BMP280;27783;42.782;23.274;2023-07-13T05:12:25;95815.31;;;22.19
42119;BMP280;27783;42.782;23.274;2023-07-13T05:14:51;95826.19;;;22.16
42119;BMP280;27783;42.782;23.274;2023-07-13T05:17:16;95822.94;;;22.55
42119;BMP280;27783;42.782;23.274;2023-07-13T05:19:42;95820.56;;;22.57
42119;BMP280;27783;42.782;23.274;2023-07-13T05:22:07;95814.59;;;23.11
42119;BMP280;27783;42.782;23.274;2023-07-13T05:24:33;95821.63;;;23.09
42119;BMP280;27783;42.782;23.274;2023-07-13T05:26:58;95824.84;;;22.90
42119;BMP280;27783;42.782;23.274;2023-07-13T05:29:24;95820.47;;;23.01
42119;BMP280;27783;42.782;23.274;2023-07-13T05:31:49;95822.31;;;23.36
42119;BMP280;27783;42.782;23.274;2023-07-13T05:34:16;95819.81;;;23.23
42119;BMP280;27783;42.782;23.274;2023-07-13T05:36:41;95820.97;;;23.94
42119;BMP280;27783;42.782;23.274;2023-07-13T05:39:07;95827.91;;;23.23
42119;BMP280;27783;42.782;23.274;2023-07-13T05:41:32;95825.50;;;23.89
42119;BMP280;27783;42.782;23.274;2023-07-13T05:43:58;95828.84;;;23.75
42119;BMP280;27783;42.782;23.274;2023-07-13T05:46:25;95824.03;;;24.24
42119;BMP280;27783;42.782;23.274;2023-07-13T05:48:51;95822.00;;;24.20
42119;BMP280;27783;42.782;23.274;2023-07-13T05:51:17;95817.81;;;23.96
42119;BMP280;27783;42.782;23.274;2023-07-13T05:53:43;95814.19;;;24.73
42119;BMP280;27783;42.782;23.274;2023-07-13T05:56:08;95808.16;;;25.34
42119;BMP280;27783;42.782;23.274;2023-07-13T05:58:34;95805.75;;;25.07
42119;BMP280;27783;42.782;23.274;2023-07-13T06:01:05;95810.72;;;25.57
42119;BMP280;27783;42.782;23.274;2023-07-13T06:03:31;95812.75;;;25.61
42119;BMP280;27783;42.782;23.274;2023-07-13T06:05:57;95816.75;;;25.80
42119;BMP280;27783;42.782;23.274;2023-07-13T06:08:22;95821.22;;;26.02
42119;BMP280;27783;42.782;23.274;2023-07-13T06:10:48;95814.06;;;26.19
42119;BMP280;27783;42.782;23.274;2023-07-13T06:13:13;95811.72;;;26.70
42119;BMP280;27783;42.782;23.274;2023-07-13T06:15:39;95818.31;;;26.06
42119;BMP280;27783;42.782;23.274;2023-07-13T06:18:04;95822.31;;;26.10
42119;BMP280;27783;42.782;23.274;2023-07-13T06:20:30;95812.78;;;26.53
42119;BMP280;27783;42.782;23.274;2023-07-13T06:22:58;95816.78;;;26.82
42119;BMP280;27783;42.782;23.274;2023-07-13T06:25:24;95813.78;;;26.56
42119;BMP280;27783;42.782;23.274;2023-07-13T06:27:49;95810.56;;;26.76
42119;BMP280;27783;42.782;23.274;2023-07-13T06:30:14;95810.50;;;27.51
42119;BMP280;27783;42.782;23.274;2023-07-13T06:32:40;95803.56;;;27.80
42119;BMP280;27783;42.782;23.274;2023-07-13T06:35:05;95790.03;;;27.80
42119;BMP280;27783;42.782;23.274;2023-07-13T06:37:31;95794.13;;;28.11
42119;BMP280;27783;42.782;23.274;2023-07-13T06:39:56;95804.09;;;27.54
42119;BMP280;27783;42.782;23.274;2023-07-13T06:42:22;95802.94;;;27.60
42119;BMP280;27783;42.782;23.274;2023-07-13T06:44:47;95798.44;;;27.52
42119;BMP280;27783;42.782;23.274;2023-07-13T06:47:13;95806.44;;;27.66
42119;BMP280;27783;42.782;23.274;2023-07-13T06:50:04;95804.34;;;27.86
42119;BMP280;27783;42.782;23.274;2023-07-13T06:52:31;95794.91;;;28.90
42119;BMP280;27783;42.782;23.274;2023-07-13T06:54:56;95806.63;;;28.44
42119;BMP280;27783;42.782;23.274;2023-07-13T06:57:22;95788.03;;;29.42
42119;BMP280;27783;42.782;23.274;2023-07-13T06:59:47;95799.34;;;28.14
42119;BMP280;27783;42.782;23.274;2023-07-13T07:02:13;95800.53;;;27.67
42119;BMP280;27783;42.782;23.274;2023-07-13T07:04:39;95800.69;;;28.40
42119;BMP280;27783;42.782;23.274;2023-07-13T07:07:04;95788.06;;;29.26
42119;BMP280;27783;42.782;23.274;2023-07-13T07:09:30;95779.31;;;29.97
42119;BMP280;27783;42.782;23.274;2023-07-13T07:11:57;95778.03;;;30.14
42119;BMP280;27783;42.782;23.274;2023-07-13T07:14:23;95786.44;;;28.61
42119;BMP280;27783;42.782;23.274;2023-07-13T07:16:49;95780.59;;;29.21
42119;BMP280;27783;42.782;23.274;2023-07-13T07:19:15;95775.66;;;30.55
42119;BMP280;27783;42.782;23.274;2023-07-13T07:21:44;95771.66;;;29.95
42119;BMP280;27783;42.782;23.274;2023-07-13T07:24:12;95775.94;;;29.27
42119;BMP280;27783;42.782;23.274;2023-07-13T07:26:38;95773.47;;;29.13
42119;BMP280;27783;42.782;23.274;2023-07-13T07:29:03;95773.69;;;29.63
42119;BMP280;27783;42.782;23.274;2023-07-13T07:31:29;95769.44;;;30.55
42119;BMP280;27783;42.782;23.274;2023-07-13T07:33:54;95761.38;;;30.83
42119;BMP280;27783;42.782;23.274;2023-07-13T07:36:20;95760.94;;;31.42
42119;BMP280;27783;42.782;23.274;2023-07-13T07:38:45;95751.03;;;30.71
42119;BMP280;27783;42.782;23.274;2023-07-13T07:41:27;95750.16;;;31.83
42119;BMP280;27783;42.782;23.274;2023-07-13T07:43:53;95745.78;;;31.46
42119;BMP280;27783;42.782;23.274;2023-07-13T07:46:25;95738.56;;;31.49
42119;BMP280;27783;42.782;23.274;2023-07-13T07:48:50;95739.50;;;31.57
42119;BMP280;27783;42.782;23.274;2023-07-13T07:51:16;95733.28;;;32.44
42119;BMP280;27783;42.782;23.274;2023-07-13T07:53:41;95735.72;;;32.47
42119;BMP280;27783;42.782;23.274;2023-07-13T07:56:07;95736.28;;;32.23
42119;BMP280;27783;42.782;23.274;2023-07-13T07:58:34;95732.56;;;32.20
42119;BMP280;27783;42.782;23.274;2023-07-13T08:01:06;95719.41;;;33.39
42119;BMP280;27783;42.782;23.274;2023-07-13T08:03:32;95719.28;;;33.75
42119;BMP280;27783;42.782;23.274;2023-07-13T08:05:57;95713.28;;;33.77
42119;BMP280;27783;42.782;23.274;2023-07-13T08:08:24;95708.78;;;34.04
42119;BMP280;27783;42.782;23.274;2023-07-13T08:10:50;95711.69;;;34.19
42119;BMP280;27783;42.782;23.274;2023-07-13T08:13:15;95710.03;;;33.91
42119;BMP280;27783;42.782;23.274;2023-07-13T08:15:41;95712.53;;;33.89
42119;BMP280;27783;42.782;23.274;2023-07-13T08:18:06;95711.59;;;33.74
42119;BMP280;27783;42.782;23.274;2023-07-13T08:20:37;95705.78;;;34.15
42119;BMP280;27783;42.782;23.274;2023-07-13T08:23:03;95703.44;;;34.57
42119;BMP280;27783;42.782;23.274;2023-07-13T08:25:28;95702.47;;;33.84
42119;BMP280;27783;42.782;23.274;2023-07-13T08:27:54;95695.38;;;33.63
42119;BMP280;27783;42.782;23.274;2023-07-13T08:30:19;95684.34;;;33.94
42119;BMP280;27783;42.782;23.274;2023-07-13T08:32:45;95693.88;;;33.49
42119;BMP280;27783;42.782;23.274;2023-07-13T08:35:11;95688.16;;;32.74
42119;BMP280;27783;42.782;23.274;2023-07-13T08:37:36;95682.31;;;33.31
42119;BMP280;27783;42.782;23.274;2023-07-13T08:40:01;95680.03;;;34.56
42119;BMP280;27783;42.782;23.274;2023-07-13T08:42:53;95681.34;;;35.54
42119;BMP280;27783;42.782;23.274;2023-07-13T08:45:35;95672.66;;;36.25
42119;BMP280;27783;42.782;23.274;2023-07-13T08:48:17;95689.34;;;35.05
42119;BMP280;27783;42.782;23.274;2023-07-13T08:50:56;95691.19;;;35.50
42119;BMP280;27783;42.782;23.274;2023-07-13T08:53:23;95699.84;;;35.34
42119;BMP280;27783;42.782;23.274;2023-07-13T08:55:51;95697.59;;;35.72
42119;BMP280;27783;42.782;23.274;2023-07-13T08:58:19;95703.91;;;34.23
42119;BMP280;27783;42.782;23.274;2023-07-13T09:00:49;95704.63;;;35.01
42119;BMP280;27783;42.782;23.274;2023-07-13T09:03:24;95708.38;;;35.70
42119;BMP280;27783;42.782;23.274;2023-07-13T09:05:54;95701.09;;;35.53
42119;BMP280;27783;42.782;23.274;2023-07-13T09:08:38;95703.50;;;36.45
42119;BMP280;27783;42.782;23.274;2023-07-13T09:14:19;95701.22;;;35.67
42119;BMP280;27783;42.782;23.274;2023-07-13T09:16:49;95691.16;;;36.32
42119;BMP280;27783;42.782;23.274;2023-07-13T09:19:21;95697.72;;;34.67
42119;BMP280;27783;42.782;23.274;2023-07-13T09:21:51;95684.53;;;35.85
42119;BMP280;27783;42.782;23.274;2023-07-13T09:27:35;95693.25;;;36.95
42119;BMP280;27783;42.782;23.274;2023-07-13T09:32:43;95693.63;;;35.33
42119;BMP280;27783;42.782;23.274;2023-07-13T09:35:17;95687.09;;;35.91
42119;BMP280;27783;42.782;23.274;2023-07-13T09:37:45;95678.56;;;36.36
42119;BMP280;27783;42.782;23.274;2023-07-13T09:40:25;95665.75;;;36.95
42119;BMP280;27783;42.782;23.274;2023-07-13T09:42:54;95656.94;;;37.91
42119;BMP280;27783;42.782;23.274;2023-07-13T09:45:29;95646.38;;;38.26
42119;BMP280;27783;42.782;23.274;2023-07-13T09:48:00;95647.19;;;36.88
42119;BMP280;27783;42.782;23.274;2023-07-13T09:50:29;95641.28;;;38.61
42119;BMP280;27783;42.782;23.274;2023-07-13T09:52:55;95641.22;;;37.40
42119;BMP280;27783;42.782;23.274;2023-07-13T09:55:30;95644.38;;;36.52
42119;BMP280;27783;42.782;23.274;2023-07-13T09:57:56;95639.03;;;37.32
42119;BMP280;27783;42.782;23.274;2023-07-13T10:00:26;95634.81;;;37.23
42119;BMP280;27783;42.782;23.274;2023-07-13T10:03:17;95621.03;;;37.38
42119;BMP280;27783;42.782;23.274;2023-07-13T10:05:45;95623.50;;;37.94
42119;BMP280;27783;42.782;23.274;2023-07-13T10:08:28;95623.16;;;37.90
42119;BMP280;27783;42.782;23.274;2023-07-13T10:11:00;95622.88;;;37.36
42119;BMP280;27783;42.782;23.274;2023-07-13T10:13:40;95635.38;;;36.44
42119;BMP280;27783;42.782;23.274;2023-07-13T10:16:07;95625.63;;;37.06
42119;BMP280;27783;42.782;23.274;2023-07-13T10:18:59;95625.25;;;37.46
42119;BMP280;27783;42.782;23.274;2023-07-13T10:21:28;95625.53;;;36.55
42119;BMP280;27783;42.782;23.274;2023-07-13T10:24:20;95603.97;;;37.25
42119;BMP280;27783;42.782;23.274;2023-07-13T10:27:00;95607.63;;;36.76
42119;BMP280;27783;42.782;23.274;2023-07-13T10:29:34;95610.69;;;36.51
42119;BMP280;27783;42.782;23.274;2023-07-13T10:32:01;95596.66;;;37.13
42119;BMP280;27783;42.782;23.274;2023-07-13T10:34:27;95602.88;;;36.84
42119;BMP280;27783;42.782;23.274;2023-07-13T10:36:53;95588.94;;;37.11
42119;BMP280;27783;42.782;23.274;2023-07-13T10:39:23;95596.47;;;36.25
42119;BMP280;27783;42.782;23.274;2023-07-13T10:42:06;95583.84;;;37.01
42119;BMP280;27783;42.782;23.274;2023-07-13T10:44:37;95575.75;;;36.81
42119;BMP280;27783;42.782;23.274;2023-07-13T10:47:08;95581.63;;;36.92
42119;BMP280;27783;42.782;23.274;2023-07-13T10:49:37;95573.00;;;37.32
42119;BMP280;27783;42.782;23.274;2023-07-13T10:52:04;95574.63;;;37.49
42119;BMP280;27783;42.782;23.274;2023-07-13T10:59:38;95548.44;;;37.94
42119;BMP280;27783;42.782;23.274;2023-07-13T11:02:13;95554.03;;;37.65
42119;BMP280;27783;42.782;23.274;2023-07-13T11:04:46;95553.78;;;37.92
42119;BMP280;27783;42.782;23.274;2023-07-13T11:07:27;95543.03;;;38.10
42119;BMP280;27783;42.782;23.274;2023-07-13T11:09:55;95547.16;;;37.05
42119;BMP280;27783;42.782;23.274;2023-07-13T11:20:20;95530.56;;;38.40
42119;BMP280;27783;42.782;23.274;2023-07-13T11:25:35;95533.38;;;37.95
42119;BMP280;27783;42.782;23.274;2023-07-13T11:33:27;95527.63;;;38.93
42119;BMP280;27783;42.782;23.274;2023-07-13T11:38:42;95516.63;;;39.83
42119;BMP280;27783;42.782;23.274;2023-07-13T11:43:37;95521.47;;;38.62
42119;BMP280;27783;42.782;23.274;2023-07-13T11:46:23;95520.19;;;38.79
42119;BMP280;27783;42.782;23.274;2023-07-13T11:48:51;95502.22;;;39.52
42119;BMP280;27783;42.782;23.274;2023-07-13T11:51:21;95510.88;;;38.75
42119;BMP280;27783;42.782;23.274;2023-07-13T11:53:50;95503.44;;;39.41
42119;BMP280;27783;42.782;23.274;2023-07-13T11:56:16;95512.13;;;37.13
42119;BMP280;27783;42.782;23.274;2023-07-13T11:58:42;95492.88;;;38.19
42119;BMP280;27783;42.782;23.274;2023-07-13T12:01:17;95499.28;;;37.83
42119;BMP280;27783;42.782;23.274;2023-07-13T12:03:45;95498.41;;;37.73
42119;BMP280;27783;42.782;23.274;2023-07-13T12:06:32;95487.59;;;37.75
42119;BMP280;27783;42.782;23.274;2023-07-13T12:09:00;95485.56;;;37.08
42119;BMP280;27783;42.782;23.274;2023-07-13T12:11:28;95465.91;;;39.88
42119;BMP280;27783;42.782;23.274;2023-07-13T12:13:56;95473.06;;;37.82
42119;BMP280;27783;42.782;23.274;2023-07-13T12:16:32;95477.97;;;37.31
42119;BMP280;27783;42.782;23.274;2023-07-13T12:19:02;95475.22;;;37.91
42119;BMP280;27783;42.782;23.274;2023-07-13T12:21:37;95462.38;;;38.48
42119;BMP280;27783;42.782;23.274;2023-07-13T12:24:05;95460.00;;;38.21
42119;BMP280;27783;42.782;23.274;2023-07-13T12:26:38;95449.16;;;38.87
42119;BMP280;27783;42.782;23.274;2023-07-13T12:29:06;95447.78;;;38.55
42119;BMP280;27783;42.782;23.274;2023-07-13T12:31:41;95444.78;;;39.41
42119;BMP280;27783;42.782;23.274;2023-07-13T12:34:13;95442.56;;;39.06
42119;BMP280;27783;42.782;23.274;2023-07-13T12:36:50;95440.47;;;39.14
42119;BMP280;27783;42.782;23.274;2023-07-13T12:39:20;95438.06;;;38.78
42119;BMP280;27783;42.782;23.274;2023-07-13T12:41:50;95435.91;;;39.09
42119;BMP280;27783;42.782;23.274;2023-07-13T12:44:29;95438.97;;;38.56
42119;BMP280;27783;42.782;23.274;2023-07-13T12:47:03;95438.22;;;38.56
42119;BMP280;27783;42.782;23.274;2023-07-13T12:49:32;95431.66;;;38.28
42119;BMP280;27783;42.782;23.274;2023-07-13T12:52:04;95429.28;;;37.93
42119;BMP280;27783;42.782;23.274;2023-07-13T12:54:30;95424.09;;;37.73
42119;BMP280;27783;42.782;23.274;2023-07-13T12:56:58;95418.34;;;38.10
42119;BMP280;27783;42.782;23.274;2023-07-13T12:59:29;95420.94;;;38.15
42119;BMP280;27783;42.782;23.274;2023-07-13T13:01:55;95419.66;;;38.33
42119;BMP280;27783;42.782;23.274;2023-07-13T13:04:21;95414.09;;;38.16
42119;BMP280;27783;42.782;23.274;2023-07-13T13:06:48;95405.41;;;39.07
42119;BMP280;27783;42.782;23.274;2023-07-13T13:09:16;95406.28;;;38.53
42119;BMP280;27783;42.782;23.274;2023-07-13T13:11:43;95406.84;;;39.41
42119;BMP280;27783;42.782;23.274;2023-07-13T13:14:14;95403.25;;;38.82
42119;BMP280;27783;42.782;23.274;2023-07-13T13:16:50;95413.25;;;38.54
42119;BMP280;27783;42.782;23.274;2023-07-13T13:19:19;95401.13;;;38.33
42119;BMP280;27783;42.782;23.274;2023-07-13T13:21:47;95397.44;;;38.95
42119;BMP280;27783;42.782;23.274;2023-07-13T13:24:17;95403.28;;;38.99
42119;BMP280;27783;42.782;23.274;2023-07-13T13:26:45;95405.22;;;38.49
42119;BMP280;27783;42.782;23.274;2023-07-13T13:29:16;95394.38;;;38.27
42119;BMP280;27783;42.782;23.274;2023-07-13T13:31:42;95399.50;;;38.30
42119;BMP280;27783;42.782;23.274;2023-07-13T13:34:17;95395.31;;;37.98
42119;BMP280;27783;42.782;23.274;2023-07-13T13:36:46;95390.84;;;37.79
42119;BMP280;27783;42.782;23.274;2023-07-13T13:39:43;95386.50;;;37.69
42119;BMP280;27783;42.782;23.274;2023-07-13T13:42:09;95385.31;;;37.86
42119;BMP280;27783;42.782;23.274;2023-07-13T13:44:35;95384.00;;;38.11
42119;BMP280;27783;42.782;23.274;2023-07-13T13:47:01;95381.81;;;37.47
42119;BMP280;27783;42.782;23.274;2023-07-13T13:49:28;95377.28;;;38.04
42119;BMP280;27783;42.782;23.274;2023-07-13T13:51:55;95376.50;;;38.35
42119;BMP280;27783;42.782;23.274;2023-07-13T13:54:22;95375.19;;;38.12
42119;BMP280;27783;42.782;23.274;2023-07-13T13:56:50;95381.53;;;38.46
42119;BMP280;27783;42.782;23.274;2023-07-13T13:59:18;95384.38;;;37.84
42119;BMP280;27783;42.782;23.274;2023-07-13T14:01:47;95384.00;;;38.18
42119;BMP280;27783;42.782;23.274;2023-07-13T14:04:21;95373.69;;;37.95
42119;BMP280;27783;42.782;23.274;2023-07-13T14:06:48;95376.81;;;37.91
42119;BMP280;27783;42.782;23.274;2023-07-13T14:09:17;95376.59;;;37.97
42119;BMP280;27783;42.782;23.274;2023-07-13T14:11:43;95389.16;;;37.83
42119;BMP280;27783;42.782;23.274;2023-07-13T14:14:15;95375.81;;;38.27
42119;BMP280;27783;42.782;23.274;2023-07-13T14:16:42;95373.81;;;38.28
42119;BMP280;27783;42.782;23.274;2023-07-13T14:19:12;95374.63;;;37.59
42119;BMP280;27783;42.782;23.274;2023-07-13T14:21:39;95374.91;;;37.70
42119;BMP280;27783;42.782;23.274;2023-07-13T14:24:06;95366.56;;;38.16
42119;BMP280;27783;42.782;23.274;2023-07-13T14:26:37;95366.88;;;38.20
42119;BMP280;27783;42.782;23.274;2023-07-13T14:29:08;95372.38;;;37.65
42119;BMP280;27783;42.782;23.274;2023-07-13T14:31:35;95364.50;;;37.61
42119;BMP280;27783;42.782;23.274;2023-07-13T14:34:01;95364.97;;;37.82
42119;BMP280;27783;42.782;23.274;2023-07-13T14:36:36;95362.59;;;37.78
42119;BMP280;27783;42.782;23.274;2023-07-13T14:39:18;95350.63;;;38.31
42119;BMP280;27783;42.782;23.274;2023-07-13T14:41:44;95356.03;;;37.67
42119;BMP280;27783;42.782;23.274;2023-07-13T14:44:15;95356.75;;;37.74